createdAt,value
2022-12-04T00:00:30.698Z,0.79
2022-12-04T00:03:45.142Z,0.71
2022-12-04T00:07:01.238Z,0.75
2022-12-04T00:10:15.718Z,0.73
2022-12-04T00:13:27.396Z,0.77
2022-12-04T00:16:39.448Z,0.79
2022-12-04T00:19:51.358Z,0.81
2022-12-04T00:23:03.004Z,0.82
2022-12-04T00:26:19.003Z,0.84
2022-12-04T00:29:30.949Z,0.80
2022-12-04T00:32:42.744Z,0.85
2022-12-04T00:35:54.649Z,0.79
2022-12-04T00:39:08.493Z,0.80
2022-12-04T00:42:20.322Z,0.77
2022-12-04T00:45:32.093Z,0.77
2022-12-04T00:48:44.818Z,0.74
2022-12-04T00:51:56.522Z,0.75
2022-12-04T00:55:08.740Z,0.69
2022-12-04T00:58:20.971Z,0.73
2022-12-04T01:01:33.820Z,0.70
2022-12-04T01:04:45.624Z,0.71
2022-12-04T01:07:57.375Z,0.69
2022-12-04T01:11:12.790Z,0.65
2022-12-04T01:14:24.413Z,0.75
2022-12-04T01:17:36.196Z,0.76
2022-12-04T01:20:52.756Z,0.73
2022-12-04T01:24:04.950Z,0.71
2022-12-04T01:27:16.843Z,0.74
2022-12-04T01:30:28.755Z,0.72
2022-12-04T01:33:41.580Z,0.79
2022-12-04T01:36:53.462Z,0.75
2022-12-04T01:40:05.137Z,0.68
2022-12-04T01:43:20.569Z,0.68
2022-12-04T01:46:32.252Z,0.73
2022-12-04T01:49:49.369Z,0.77
2022-12-04T01:52:59.200Z,0.75
2022-12-04T01:56:12.746Z,0.77
2022-12-04T01:59:28.788Z,0.70
2022-12-04T02:02:42.953Z,0.66
2022-12-04T02:05:54.644Z,0.68
2022-12-04T02:09:07.093Z,0.73
2022-12-04T02:12:24.852Z,0.79
2022-12-04T02:15:42.388Z,0.75
2022-12-04T02:19:01.760Z,0.75
2022-12-04T02:22:19.324Z,0.83
2022-12-04T02:25:39.416Z,0.84
2022-12-04T02:28:55.878Z,0.80
2022-12-04T02:32:13.922Z,0.83
2022-12-04T02:35:31.159Z,0.87
2022-12-04T02:38:50.897Z,0.87
2022-12-04T02:42:08.700Z,0.97
2022-12-04T02:45:24.676Z,0.96
2022-12-04T02:48:40.922Z,0.94
2022-12-04T02:51:55.430Z,1.02
2022-12-04T02:55:12.586Z,1.04
2022-12-04T02:58:30.297Z,1.08
2022-12-04T03:01:46.523Z,1.09
2022-12-04T03:05:01.564Z,1.10
2022-12-04T03:08:18.457Z,1.14
2022-12-04T03:11:33.092Z,1.18
2022-12-04T03:14:48.761Z,1.16
2022-12-04T03:18:05.443Z,1.21
2022-12-04T03:21:20.877Z,1.19
2022-12-04T03:24:37.355Z,1.24
2022-12-04T03:27:55.840Z,1.26
2022-12-04T03:31:12.184Z,1.27
2022-12-04T03:34:30.604Z,1.31
2022-12-04T03:37:47.772Z,1.31
2022-12-04T03:41:04.545Z,1.30
2022-12-04T03:44:21.917Z,1.28
2022-12-04T03:47:40.371Z,1.30
2022-12-04T03:50:56.618Z,1.30
2022-12-04T03:54:14.253Z,1.26
2022-12-04T03:57:31.278Z,1.16
2022-12-04T04:00:44.407Z,1.27
2022-12-04T04:04:00.463Z,1.21
2022-12-04T04:07:18.064Z,1.26
2022-12-04T04:10:32.499Z,1.21
2022-12-04T04:14:04.309Z,1.23
2022-12-04T04:17:38.727Z,1.22
2022-12-04T04:21:08.007Z,1.18
2022-12-04T04:24:29.680Z,1.19
2022-12-04T04:27:41.396Z,1.18
2022-12-04T04:30:53.240Z,1.18
2022-12-04T04:34:11.630Z,1.19
2022-12-04T04:37:32.331Z,1.16
2022-12-04T04:40:48.608Z,1.17
2022-12-04T04:44:06.547Z,1.21
2022-12-04T04:47:24.168Z,1.27
2022-12-04T04:50:38.886Z,1.27
2022-12-04T04:53:55.390Z,1.27
2022-12-04T04:57:06.947Z,1.30
2022-12-04T05:00:25.872Z,1.26
2022-12-04T05:03:38.414Z,1.34
2022-12-04T05:06:50.215Z,1.35
2022-12-04T05:10:01.911Z,1.35
2022-12-04T05:13:17.975Z,1.39
2022-12-04T05:16:30.210Z,1.38
2022-12-04T05:19:58.198Z,1.34
2022-12-04T05:23:10.565Z,1.34
2022-12-04T05:26:22.318Z,1.36
2022-12-04T05:29:36.112Z,1.40
2022-12-04T05:32:48.248Z,1.41
2022-12-04T05:36:06.410Z,1.41
2022-12-04T05:39:18.744Z,1.42
2022-12-04T05:42:30.401Z,1.39
2022-12-04T05:45:43.174Z,1.38
2022-12-04T05:48:54.828Z,1.42
2022-12-04T05:52:07.950Z,1.35
2022-12-04T05:55:19.750Z,1.34
2022-12-04T05:58:32.112Z,1.38
2022-12-04T06:01:44.258Z,1.40
2022-12-04T06:04:56.785Z,1.39
2022-12-04T06:08:08.780Z,1.42
2022-12-04T06:11:24.374Z,1.44
2022-12-04T06:14:39.480Z,1.45
2022-12-04T06:17:50.018Z,1.44
2022-12-04T06:21:04.835Z,1.41
2022-12-04T06:24:22.345Z,1.32
2022-12-04T06:27:35.752Z,1.37
2022-12-04T06:30:47.440Z,1.40
2022-12-04T06:34:01.651Z,1.40
2022-12-04T06:37:13.494Z,1.40
2022-12-04T06:40:25.537Z,1.41
2022-12-04T06:43:37.347Z,1.42
2022-12-04T06:46:50.052Z,1.44
2022-12-04T06:50:02.144Z,1.45
2022-12-04T06:53:13.849Z,1.46
2022-12-04T06:56:27.947Z,1.48
2022-12-04T06:59:40.011Z,1.50
2022-12-04T07:02:51.865Z,1.43
2022-12-04T07:06:03.744Z,1.45
2022-12-04T07:09:18.975Z,1.45
2022-12-04T07:12:30.818Z,1.47
2022-12-04T07:15:43.734Z,1.51
2022-12-04T07:18:56.711Z,1.49
2022-12-04T07:22:09.657Z,1.56
2022-12-04T07:25:21.745Z,1.55
2022-12-04T07:28:33.399Z,1.54
2022-12-04T07:31:45.515Z,1.55
2022-12-04T07:34:57.429Z,1.54
2022-12-04T07:38:09.160Z,1.56
2022-12-04T07:41:21.938Z,1.59
2022-12-04T07:44:37.190Z,1.64
2022-12-04T07:47:49.014Z,1.63
2022-12-04T07:51:10.162Z,1.65
2022-12-04T07:54:22.465Z,1.58
2022-12-04T07:57:35.083Z,1.55
2022-12-04T08:00:46.746Z,1.57
2022-12-04T08:04:03.129Z,1.62
2022-12-04T08:07:15.288Z,1.64
2022-12-04T08:14:09.547Z,1.71
2022-12-04T08:17:21.297Z,1.66
2022-12-04T08:23:36.509Z,1.68
2022-12-04T08:34:12.459Z,1.70
2022-12-04T08:37:27.667Z,1.76
2022-12-04T08:40:41.759Z,1.78
2022-12-04T08:47:33.955Z,1.86
2022-12-04T08:54:01.755Z,1.94
2022-12-04T09:01:06.433Z,2.00
2022-12-04T09:08:53.826Z,2.15
2022-12-04T09:19:09.746Z,2.18
2022-12-04T09:22:21.698Z,2.21
2022-12-04T09:25:41.015Z,2.22
2022-12-04T09:43:06.387Z,2.40
2022-12-04T09:46:24.066Z,2.39
2022-12-04T09:57:05.524Z,2.48
2022-12-04T10:01:06.744Z,2.56
2022-12-04T10:44:55.641Z,3.26
2022-12-04T10:56:43.610Z,3.45
2022-12-04T11:07:41.023Z,3.66
2022-12-04T11:11:05.590Z,3.71
2022-12-04T11:14:25.134Z,3.79
2022-12-04T11:17:37.614Z,3.96
2022-12-04T11:20:57.886Z,4.08
2022-12-04T11:24:10.828Z,4.19
2022-12-04T11:27:31.847Z,4.27
2022-12-04T11:30:45.085Z,4.68
2022-12-04T11:34:01.340Z,4.92
2022-12-04T11:37:23.141Z,5.20
2022-12-04T11:40:40.931Z,5.28
2022-12-04T11:44:00.193Z,5.69
2022-12-04T11:47:20.565Z,5.90
2022-12-04T11:50:42.624Z,6.11
2022-12-04T11:53:59.667Z,6.19
2022-12-04T11:57:19.117Z,6.28
2022-12-04T12:00:32.824Z,6.04
2022-12-04T12:03:51.694Z,5.95
2022-12-04T12:07:14.164Z,6.02
2022-12-04T12:10:31.998Z,6.01
2022-12-04T12:13:52.427Z,6.05
2022-12-04T12:17:16.326Z,6.03
2022-12-04T12:20:33.828Z,6.02
2022-12-04T12:24:01.476Z,6.07
2022-12-04T12:27:24.080Z,6.14
2022-12-04T12:30:41.582Z,6.17
2022-12-04T12:33:58.908Z,6.17
2022-12-04T12:37:20.490Z,6.14
2022-12-04T12:40:41.170Z,6.11
2022-12-04T12:44:00.074Z,6.04
2022-12-04T12:47:17.194Z,6.01
2022-12-04T12:50:32.930Z,5.98
2022-12-04T12:53:51.247Z,6.01
2022-12-04T12:57:10.565Z,5.93
2022-12-04T13:00:26.713Z,5.89
2022-12-04T13:03:47.571Z,5.83
2022-12-04T13:07:06.369Z,5.80
2022-12-04T13:10:24.166Z,5.72
2022-12-04T13:13:39.321Z,5.74
2022-12-04T13:16:55.520Z,5.71
2022-12-04T13:20:15.591Z,5.64
2022-12-04T13:23:45.198Z,5.63
2022-12-04T13:27:04.155Z,5.50
2022-12-04T13:30:24.668Z,5.40
2022-12-04T13:33:58.180Z,5.32
2022-12-04T13:37:37.025Z,5.17
2022-12-04T13:40:54.271Z,5.06
2022-12-04T13:44:07.339Z,4.94
2022-12-04T13:47:31.701Z,4.83
2022-12-04T13:50:45.539Z,4.70
2022-12-04T13:54:28.120Z,4.63
2022-12-04T13:57:40.236Z,4.53
2022-12-04T14:00:55.650Z,4.44
2022-12-04T14:04:08.798Z,4.37
2022-12-04T14:07:32.968Z,4.33
2022-12-04T14:10:51.353Z,4.31
2022-12-04T14:14:08.127Z,4.17
2022-12-04T14:17:28.735Z,4.10
2022-12-04T14:20:44.400Z,4.02
2022-12-04T14:23:57.949Z,3.86
2022-12-04T14:27:38.857Z,3.88
2022-12-04T14:30:59.295Z,3.81
2022-12-04T14:34:27.168Z,3.69
2022-12-04T14:37:45.332Z,3.62
2022-12-04T14:41:01.715Z,3.58
2022-12-04T14:44:25.514Z,3.50
2022-12-04T14:47:49.783Z,3.38
2022-12-04T14:51:09.363Z,3.34
2022-12-04T14:54:27.883Z,3.25
2022-12-04T14:57:50.885Z,3.14
2022-12-04T15:01:04.703Z,3.12
2022-12-04T15:04:23.080Z,3.04
2022-12-04T15:07:38.864Z,2.96
2022-12-04T15:11:13.621Z,2.87
2022-12-04T15:14:27.393Z,2.82
2022-12-04T15:17:39.181Z,2.75
2022-12-04T15:21:01.505Z,2.67
2022-12-04T15:24:24.318Z,2.61
2022-12-04T15:27:36.989Z,2.58
2022-12-04T15:30:50.590Z,2.54
2022-12-04T15:34:07.080Z,2.52
2022-12-04T15:37:26.353Z,2.53
2022-12-04T15:40:38.745Z,2.51
2022-12-04T15:43:52.076Z,2.48
2022-12-04T15:47:06.987Z,2.45
2022-12-04T15:50:28.200Z,2.44
2022-12-04T15:53:44.096Z,2.38
2022-12-04T15:57:08.775Z,2.41
2022-12-04T16:00:33.705Z,2.39
2022-12-04T16:03:52.996Z,2.36
2022-12-04T16:07:04.907Z,2.35
2022-12-04T16:10:31.184Z,2.35
2022-12-04T16:13:44.730Z,2.33
2022-12-04T16:17:05.577Z,2.32
2022-12-04T16:20:16.872Z,2.34
2022-12-04T16:23:33.533Z,2.35
2022-12-04T16:26:51.481Z,2.30
2022-12-04T16:30:08.221Z,2.29
2022-12-04T16:33:25.027Z,2.31
2022-12-04T16:36:52.984Z,2.34
2022-12-04T16:40:12.910Z,2.29
2022-12-04T16:43:25.792Z,2.27
2022-12-04T16:46:37.675Z,2.26
2022-12-04T16:49:53.582Z,2.22
2022-12-04T16:53:05.780Z,2.15
2022-12-04T16:56:17.880Z,2.17
2022-12-04T16:59:29.950Z,2.15
2022-12-04T17:02:41.872Z,2.23
2022-12-04T17:05:53.788Z,2.25
2022-12-04T17:09:05.769Z,2.17
2022-12-04T17:12:17.799Z,2.14
2022-12-04T17:15:29.794Z,1.89
2022-12-04T17:18:42.024Z,2.10
2022-12-04T17:21:53.875Z,2.05
2022-12-04T17:25:05.704Z,2.02
2022-12-04T17:28:18.018Z,2.03
2022-12-04T17:31:32.592Z,1.96
2022-12-04T17:34:44.796Z,1.93
2022-12-04T17:38:05.684Z,1.94
2022-12-04T17:41:17.791Z,1.90
2022-12-04T17:44:29.918Z,1.93
2022-12-04T17:47:43.114Z,1.95
2022-12-04T17:50:55.001Z,1.93
2022-12-04T17:54:06.986Z,1.92
2022-12-04T17:57:18.768Z,1.94
2022-12-04T18:00:30.961Z,1.92
2022-12-04T18:03:43.940Z,1.86
2022-12-04T18:06:56.786Z,1.89
2022-12-04T18:10:09.800Z,1.90
2022-12-04T18:13:21.875Z,1.85
2022-12-04T18:16:36.687Z,1.89
2022-12-04T18:19:49.222Z,1.92
2022-12-04T18:23:01.037Z,1.88
2022-12-04T18:26:13.392Z,1.91
2022-12-04T18:29:27.762Z,1.93
2022-12-04T18:32:39.495Z,1.86
2022-12-04T18:35:59.128Z,1.84
2022-12-04T18:39:14.514Z,1.81
2022-12-04T18:42:26.672Z,1.86
2022-12-04T18:45:38.564Z,1.89
2022-12-04T18:48:52.873Z,1.88
2022-12-04T18:52:06.383Z,1.92
2022-12-04T18:55:18.990Z,1.89
2022-12-04T18:58:30.722Z,1.86
2022-12-04T19:01:42.864Z,1.93
2022-12-04T19:05:07.859Z,1.92
2022-12-04T19:08:20.024Z,1.92
2022-12-04T19:11:32.663Z,1.92
2022-12-04T19:14:44.898Z,1.91
2022-12-04T19:17:56.921Z,1.96
2022-12-04T19:21:12.772Z,1.88
2022-12-04T19:24:25.081Z,1.87
2022-12-04T19:27:37.453Z,1.86
2022-12-04T19:30:49.445Z,1.88
2022-12-04T19:34:02.146Z,1.87
2022-12-04T19:37:14.487Z,2.01
2022-12-04T19:40:27.347Z,1.92
2022-12-04T19:43:39.532Z,1.92
2022-12-04T19:46:51.406Z,1.92
2022-12-04T19:50:03.702Z,1.91
2022-12-04T19:53:15.996Z,1.90
2022-12-04T19:56:30.723Z,1.91
2022-12-04T19:59:46.193Z,1.93
2022-12-04T20:02:57.503Z,2.00
2022-12-04T20:06:12.618Z,1.94
2022-12-04T20:09:27.582Z,1.92
2022-12-04T20:12:39.679Z,1.90
2022-12-04T20:15:51.635Z,1.95
2022-12-04T20:19:04.315Z,1.95
2022-12-04T20:22:16.367Z,1.94
2022-12-04T20:25:28.351Z,1.96
2022-12-04T20:28:40.626Z,1.93
2022-12-04T20:31:53.517Z,1.89
2022-12-04T20:35:05.298Z,1.93
2022-12-04T20:38:17.396Z,1.94
2022-12-04T20:41:30.665Z,1.93
2022-12-04T20:44:42.886Z,1.91
2022-12-04T20:51:40.184Z,1.94
2022-12-04T20:54:54.111Z,1.93
2022-12-04T20:58:15.282Z,1.92
2022-12-04T21:01:39.335Z,1.91
2022-12-04T21:04:51.324Z,1.84
2022-12-04T21:11:46.883Z,1.92
2022-12-04T21:15:13.652Z,1.91
2022-12-04T21:18:26.240Z,1.87
2022-12-04T21:21:39.009Z,1.89
2022-12-04T21:24:51.428Z,1.88
2022-12-04T21:28:03.195Z,1.83
2022-12-04T21:31:15.530Z,1.86
2022-12-04T21:34:28.014Z,1.82
2022-12-04T21:37:40.730Z,1.83
2022-12-04T21:40:55.397Z,1.80
2022-12-04T21:44:09.860Z,1.87
2022-12-04T21:47:21.766Z,1.86
2022-12-04T21:50:33.698Z,1.84
2022-12-04T21:53:45.550Z,1.86
2022-12-04T21:56:57.347Z,1.78
2022-12-04T22:00:10.848Z,1.76
2022-12-04T22:03:23.063Z,1.74
2022-12-04T22:06:38.031Z,1.73
2022-12-04T22:09:50.373Z,1.75
2022-12-04T22:13:02.073Z,1.76
2022-12-04T22:16:17.980Z,1.80
2022-12-04T22:19:30.373Z,1.83
2022-12-04T22:22:43.049Z,1.81
2022-12-04T22:25:54.889Z,1.82
2022-12-04T22:29:26.998Z,1.82
2022-12-04T22:32:20.656Z,1.76
2022-12-04T22:35:32.668Z,1.80
2022-12-04T22:39:08.073Z,1.75
2022-12-04T22:41:59.503Z,1.73
2022-12-04T22:45:13.292Z,1.77
2022-12-04T22:48:25.356Z,1.70
2022-12-04T22:51:37.240Z,1.74
2022-12-04T22:54:49.049Z,1.73
2022-12-04T22:58:00.709Z,1.76
2022-12-04T23:01:18.241Z,1.76
2022-12-04T23:04:30.149Z,1.74
2022-12-04T23:07:41.926Z,1.71
2022-12-04T23:10:53.703Z,1.66
2022-12-04T23:14:08.254Z,1.68
2022-12-04T23:17:20.664Z,1.67
2022-12-04T23:20:32.601Z,1.68
2022-12-04T23:23:47.219Z,1.65
2022-12-04T23:27:00.176Z,1.67
2022-12-04T23:30:14.488Z,1.61
2022-12-04T23:33:26.380Z,1.57
2022-12-04T23:36:38.700Z,1.57
2022-12-04T23:39:50.382Z,1.57
2022-12-04T23:43:02.006Z,1.63
2022-12-04T23:46:15.431Z,1.57
2022-12-04T23:49:27.137Z,1.49
2022-12-04T23:52:39.007Z,1.50
2022-12-04T23:55:52.923Z,1.48
2022-12-04T23:59:05.046Z,1.47
